createdAt,value
2022-12-24T00:02:35.778Z,9.70
2022-12-24T00:07:38.676Z,9.67
2022-12-24T00:12:42.845Z,9.72
2022-12-24T00:17:45.606Z,9.68
2022-12-24T00:22:48.320Z,9.72
2022-12-24T00:27:52.420Z,9.74
2022-12-24T00:32:55.436Z,9.70
2022-12-24T00:37:58.175Z,9.71
2022-12-24T00:43:02.306Z,9.59
2022-12-24T00:48:05.146Z,9.54
2022-12-24T00:53:07.881Z,9.52
2022-12-24T00:58:11.985Z,9.50
2022-12-24T01:03:14.752Z,9.68
2022-12-24T01:08:17.465Z,9.68
2022-12-24T01:13:21.680Z,9.55
2022-12-24T01:18:25.009Z,9.53
2022-12-24T01:23:27.862Z,9.52
2022-12-24T01:28:32.646Z,9.52
2022-12-24T01:33:35.283Z,9.46
2022-12-24T01:38:38.041Z,9.41
2022-12-24T01:43:42.170Z,9.43
2022-12-24T01:48:47.200Z,9.43
2022-12-24T01:53:53.686Z,9.45
2022-12-24T01:59:01.285Z,9.44
2022-12-24T02:04:06.798Z,9.44
2022-12-24T02:09:09.534Z,9.49
2022-12-24T02:14:14.647Z,9.44
2022-12-24T02:19:53.315Z,9.47
2022-12-24T02:25:09.710Z,9.50
2022-12-24T02:30:16.080Z,9.56
2022-12-24T02:35:20.407Z,9.57
2022-12-24T02:40:25.539Z,9.52
2022-12-24T02:45:31.379Z,9.44
2022-12-24T02:50:34.237Z,9.52
2022-12-24T02:55:45.306Z,9.44
2022-12-24T03:00:58.739Z,9.31
2022-12-24T03:06:08.975Z,9.36
2022-12-24T03:11:13.713Z,9.34
2022-12-24T03:16:19.029Z,9.34
2022-12-24T03:21:25.178Z,9.32
2022-12-24T03:26:30.585Z,9.34
2022-12-24T03:31:43.433Z,9.23
2022-12-24T03:36:47.345Z,9.24
2022-12-24T03:41:50.568Z,9.28
2022-12-24T03:46:54.675Z,9.27
2022-12-24T03:51:57.511Z,9.23
2022-12-24T03:57:00.269Z,9.13
2022-12-24T04:02:04.710Z,9.18
2022-12-24T04:07:07.934Z,9.10
2022-12-24T04:12:10.791Z,9.05
2022-12-24T04:17:14.949Z,9.11
2022-12-24T04:22:17.954Z,8.98
2022-12-24T04:27:22.963Z,8.99
2022-12-24T04:32:30.894Z,8.95
2022-12-24T04:37:34.414Z,8.90
2022-12-24T04:42:37.207Z,8.84
2022-12-24T04:47:41.315Z,8.73
2022-12-24T04:52:44.072Z,8.66
2022-12-24T04:57:52.618Z,8.62
2022-12-24T05:02:57.162Z,8.66
2022-12-24T05:07:59.947Z,8.69
2022-12-24T05:13:02.736Z,8.76
2022-12-24T05:18:07.108Z,8.81
2022-12-24T05:23:28.883Z,8.77
2022-12-24T05:28:31.653Z,8.78
2022-12-24T05:33:35.896Z,8.80
2022-12-24T05:38:38.769Z,8.75
2022-12-24T05:43:41.521Z,8.74
2022-12-24T05:48:45.666Z,8.71
2022-12-24T05:53:49.162Z,8.70
2022-12-24T05:58:52.466Z,8.68
2022-12-24T06:03:58.135Z,8.70
2022-12-24T06:09:00.958Z,8.69
2022-12-24T06:14:04.463Z,8.70
2022-12-24T06:19:08.543Z,8.78
2022-12-24T06:24:11.338Z,8.77
2022-12-24T06:29:14.081Z,8.78
2022-12-24T06:34:18.211Z,8.73
2022-12-24T06:39:20.941Z,8.76
2022-12-24T06:44:23.950Z,8.72
2022-12-24T06:49:28.080Z,8.73
2022-12-24T06:54:31.019Z,8.75
2022-12-24T06:59:34.173Z,8.79
2022-12-24T07:04:38.298Z,8.81
2022-12-24T07:09:41.099Z,8.87
2022-12-24T07:14:43.811Z,8.99
2022-12-24T07:19:47.889Z,9.00
2022-12-24T07:24:50.617Z,9.02
2022-12-24T07:29:53.374Z,8.99
2022-12-24T07:34:57.444Z,9.03
2022-12-24T07:40:00.200Z,9.02
2022-12-24T07:45:02.933Z,9.08
2022-12-24T07:50:08.746Z,8.88
2022-12-24T07:55:11.528Z,8.93
2022-12-24T08:00:14.991Z,8.90
2022-12-24T08:05:19.151Z,9.00
2022-12-24T08:10:22.226Z,8.96
2022-12-24T08:15:24.940Z,9.05
2022-12-24T08:20:29.093Z,9.09
2022-12-24T08:25:32.182Z,9.10
2022-12-24T08:30:35.132Z,9.16
2022-12-24T08:35:39.264Z,9.26
2022-12-24T08:40:42.026Z,9.18
2022-12-24T08:45:45.026Z,9.11
2022-12-24T08:50:49.220Z,9.03
2022-12-24T08:55:55.916Z,9.00
2022-12-24T09:00:59.790Z,8.97
2022-12-24T09:06:05.944Z,9.00
2022-12-24T09:11:11.751Z,9.13
2022-12-24T09:16:14.592Z,9.24
2022-12-24T09:21:19.089Z,9.32
2022-12-24T09:26:23.761Z,9.37
2022-12-24T09:31:26.538Z,9.41
2022-12-24T09:36:30.649Z,9.36
2022-12-24T09:41:46.154Z,9.37
2022-12-24T09:46:50.464Z,9.50
2022-12-24T09:51:58.131Z,9.71
2022-12-24T09:57:04.014Z,9.80
2022-12-24T10:02:11.222Z,9.79
2022-12-24T10:07:32.804Z,9.85
2022-12-24T10:12:45.942Z,9.84
2022-12-24T10:18:01.185Z,9.77
2022-12-24T10:23:11.704Z,9.71
2022-12-24T10:28:16.770Z,9.69
2022-12-24T10:33:21.811Z,9.76
2022-12-24T10:38:26.705Z,9.67
2022-12-24T10:43:30.835Z,9.64
2022-12-24T10:48:42.365Z,9.73
2022-12-24T10:53:53.142Z,9.83
2022-12-24T10:58:56.397Z,9.84
2022-12-24T11:04:02.474Z,9.91
2022-12-24T11:09:22.477Z,9.95
2022-12-24T11:14:25.691Z,9.99
2022-12-24T11:19:32.787Z,10.14
2022-12-24T11:24:39.619Z,10.11
2022-12-24T11:29:44.563Z,10.31
2022-12-24T11:34:47.360Z,10.15
2022-12-24T11:39:53.471Z,10.24
2022-12-24T11:44:57.849Z,10.50
2022-12-24T11:50:23.851Z,10.30
2022-12-24T11:55:36.737Z,10.21
2022-12-24T12:00:40.537Z,10.26
2022-12-24T12:05:43.358Z,10.25
2022-12-24T12:10:48.120Z,10.07
2022-12-24T12:15:53.273Z,10.01
2022-12-24T12:21:00.820Z,9.91
2022-12-24T12:26:09.520Z,10.00
2022-12-24T12:31:16.573Z,9.98
2022-12-24T12:36:21.496Z,10.00
2022-12-24T12:41:37.057Z,10.07
2022-12-24T12:46:49.677Z,10.09
2022-12-24T12:51:58.405Z,10.18
2022-12-24T12:57:06.333Z,10.18
2022-12-24T13:02:26.947Z,10.12
2022-12-24T13:07:43.712Z,10.09
2022-12-24T13:13:01.562Z,10.06
2022-12-24T13:18:35.455Z,10.16
2022-12-24T13:23:38.335Z,10.11
2022-12-24T13:28:43.227Z,10.11
2022-12-24T13:33:49.614Z,10.07
2022-12-24T13:38:53.291Z,10.01
2022-12-24T13:44:19.431Z,10.09
2022-12-24T13:49:23.275Z,9.96
2022-12-24T13:54:28.439Z,9.90
2022-12-24T13:59:39.054Z,9.85
2022-12-24T14:04:42.538Z,9.88
2022-12-24T14:09:49.453Z,9.96
2022-12-24T14:14:53.616Z,10.08
2022-12-24T14:19:57.831Z,10.04
2022-12-24T14:25:03.204Z,9.96
2022-12-24T14:30:09.661Z,10.04
2022-12-24T14:35:18.239Z,10.00
2022-12-24T14:40:22.950Z,9.93
2022-12-24T14:45:32.677Z,9.85
2022-12-24T14:50:50.021Z,9.62
2022-12-24T14:55:53.108Z,9.48
2022-12-24T15:00:59.409Z,9.37
2022-12-24T15:06:03.034Z,9.31
2022-12-24T15:11:07.741Z,9.14
2022-12-24T15:16:14.614Z,9.04
2022-12-24T15:21:20.670Z,8.92
2022-12-24T15:26:26.862Z,8.84
2022-12-24T15:31:31.407Z,8.75
2022-12-24T15:36:35.300Z,8.66
2022-12-24T15:42:00.175Z,8.53
2022-12-24T15:47:06.194Z,8.40
2022-12-24T15:52:11.139Z,8.35
2022-12-24T15:57:15.797Z,8.27
2022-12-24T16:02:43.146Z,8.19
2022-12-24T16:08:09.937Z,8.12
2022-12-24T16:13:16.095Z,8.02
2022-12-24T16:18:24.523Z,7.98
2022-12-24T16:23:32.065Z,7.96
2022-12-24T16:28:34.875Z,7.96
2022-12-24T16:33:39.181Z,7.86
2022-12-24T16:38:55.808Z,7.96
2022-12-24T16:43:58.549Z,7.92
2022-12-24T16:49:02.671Z,7.86
2022-12-24T16:54:05.496Z,7.75
2022-12-24T16:59:08.235Z,7.76
2022-12-24T17:04:12.524Z,7.65
2022-12-24T17:09:15.284Z,7.61
2022-12-24T17:14:20.917Z,7.52
2022-12-24T17:19:25.273Z,7.51
2022-12-24T17:24:28.043Z,7.36
2022-12-24T17:29:30.778Z,7.32
2022-12-24T17:34:34.930Z,7.22
2022-12-24T17:39:37.730Z,7.19
2022-12-24T17:44:40.429Z,7.12
2022-12-24T17:49:44.473Z,7.12
2022-12-24T17:54:47.182Z,7.00
2022-12-24T17:59:49.894Z,6.96
2022-12-24T18:04:54.104Z,6.90
2022-12-24T18:09:56.813Z,6.88
2022-12-24T18:14:59.798Z,6.84
2022-12-24T18:20:03.865Z,6.86
2022-12-24T18:25:07.401Z,6.78
2022-12-24T18:30:11.038Z,6.74
2022-12-24T18:35:15.816Z,6.63
2022-12-24T18:40:20.420Z,6.60
2022-12-24T18:45:23.194Z,6.56
2022-12-24T18:50:27.644Z,6.46
2022-12-24T18:55:30.645Z,6.39
2022-12-24T19:00:33.372Z,6.31
2022-12-24T19:05:37.475Z,6.30
2022-12-24T19:10:40.203Z,6.26
2022-12-24T19:15:42.949Z,6.10
2022-12-24T19:20:47.113Z,6.15
2022-12-24T19:25:50.161Z,6.01
2022-12-24T19:30:52.892Z,5.98
2022-12-24T19:35:56.945Z,6.00
2022-12-24T19:41:06.417Z,5.96
2022-12-24T19:46:10.199Z,5.94
2022-12-24T19:51:14.676Z,5.96
2022-12-24T19:56:18.331Z,5.90
2022-12-24T20:01:22.684Z,5.94
2022-12-24T20:06:29.032Z,5.93
2022-12-24T20:11:31.631Z,5.84
2022-12-24T20:16:35.269Z,5.75
2022-12-24T20:21:39.466Z,5.76
2022-12-24T20:26:42.467Z,5.74
2022-12-24T20:31:45.235Z,5.54
2022-12-24T20:36:50.812Z,5.56
2022-12-24T20:41:53.513Z,5.61
2022-12-24T20:46:56.223Z,5.57
2022-12-24T20:52:00.283Z,5.54
2022-12-24T20:57:03.011Z,5.54
2022-12-24T21:02:05.947Z,5.49
2022-12-24T21:07:14.323Z,5.52
2022-12-24T21:12:34.504Z,5.56
2022-12-24T21:17:37.232Z,5.49
2022-12-24T21:22:41.521Z,5.54
2022-12-24T21:27:44.820Z,5.50
2022-12-24T21:32:47.652Z,5.54
2022-12-24T21:37:51.765Z,5.49
2022-12-24T21:42:54.488Z,5.52
2022-12-24T21:47:57.228Z,5.50
2022-12-24T21:53:15.209Z,5.53
2022-12-24T21:58:18.039Z,5.58
2022-12-24T22:03:20.793Z,5.54
2022-12-24T22:08:42.515Z,5.61
2022-12-24T22:13:45.194Z,5.65
2022-12-24T22:18:47.888Z,5.63
2022-12-24T22:23:52.352Z,5.56
2022-12-24T22:28:55.104Z,5.59
2022-12-24T22:33:57.806Z,5.64
2022-12-24T22:39:02.145Z,5.61
2022-12-24T22:44:05.043Z,5.67
2022-12-24T22:49:07.935Z,5.55
2022-12-24T22:54:12.079Z,5.77
2022-12-24T22:59:15.960Z,5.76
2022-12-24T23:04:18.772Z,5.74
2022-12-24T23:09:22.875Z,5.57
2022-12-24T23:14:43.202Z,5.39
2022-12-24T23:19:46.045Z,5.40
2022-12-24T23:24:50.083Z,5.44
2022-12-24T23:29:52.782Z,5.48
2022-12-24T23:34:55.501Z,5.46
2022-12-24T23:39:59.885Z,5.44
2022-12-24T23:45:02.619Z,5.34
2022-12-24T23:50:06.173Z,5.40
2022-12-24T23:55:10.527Z,5.35
